• Join FlightAware (Why Join?)
  • Login
  • US Flag 
11:46AM EST


 

Airport Tracker/Info


-or-


 

Live Flight TrackerFlight Track Log ✈ SWA1688 ✈ 14-May-2013 ✈ KMCO - KALB

Flight Track Log - Related Links

Times and Time Zones

All times are in EDT time to prevent confusion due to time zone crossing. See the SWA1688 flight status page for this flight to view local times or setup timezone preferences in your user account.

Time Position Orientation Groundspeed Altitude Reporting Facility
EDT Latitude Longitude Course Direction KTS MPH feet Rate Location/Type
09:20PM 28.4167 -81.3000 164° South 151 174 800  Level Orlando TRACON
09:21PM 28.3667 -81.2833 164° South 204 235 2,900 2,760 Climbing Orlando TRACON
09:22PM 28.3333 -81.2333 127° Southeast 254 292 5,800 3,420 Climbing Orlando TRACON
09:23PM 28.3500 -81.1667 74° East 230 265 10,100 3,060 Climbing Orlando TRACON
09:25PM 28.4914 -81.1944 350° North 309 356 15,000 2,820 Climbing Jacksonville Center
09:26PM 28.5878 -81.2281 343° North 333 383 18,300 3,120 Climbing Jacksonville Center
09:27PM 28.6864 -81.2572 345° North 351 404 21,300 2,760 Climbing Jacksonville Center
09:28PM 28.7931 -81.2933 343° North 373 429 23,900 2,340 Climbing Jacksonville Center
09:29PM 28.9042 -81.3294 344° North 399 459 26,000 1,020 Climbing Jacksonville Center
09:30PM 29.0153 -81.3633 345° North 406 467 26,000 660 Level Jacksonville Center
09:31PM 29.1303 -81.3925 348° North 411 473 27,400 1,800 Climbing Jacksonville Center
09:32PM 29.2494 -81.4028 356° North 416 479 29,700 2,220 Climbing Jacksonville Center
09:33PM 29.3686 -81.4175 354° North 427 491 31,900 2,160 Climbing Jacksonville Center
09:34PM 29.5003 -81.4322 354° North 427 491 34,100 2,160 Climbing Jacksonville Center
09:35PM 29.6217 -81.4447 355° North 432 497 36,300 2,100 Climbing Jacksonville Center
09:36PM 29.7447 -81.4431 North 432 497 38,300 2,040 Climbing Jacksonville Center
09:37PM 29.8594 -81.4317 North 420 483 40,500 1,320 Climbing Jacksonville Center
09:38PM 29.9719 -81.4181 North 409 471 41,000 240 Climbing Jacksonville Center
09:39PM 30.0844 -81.4067 North 404 465 41,000  Level Jacksonville Center
09:40PM 30.2014 -81.3953 North 409 471 41,000  Level Jacksonville Center
09:41PM 30.3181 -81.3814 North 409 471 41,000  Level Jacksonville Center
09:42PM 30.4392 -81.3722 North 415 478 41,000  Level Jacksonville Center
09:43PM 30.5558 -81.3558 North 421 484 41,000  Level Jacksonville Center
09:44PM 30.6597 -81.3108 20° North 427 491 41,000  Level Jacksonville Center
09:45PM 30.7717 -81.2606 21° North 432 497 41,000  Level Jacksonville Center
09:46PM 30.8839 -81.2103 21° North 432 497 41,000  Level Jacksonville Center
09:47PM 30.9958 -81.1622 20° North 426 490 41,000  Level Jacksonville Center
09:48PM 31.1058 -81.1142 21° North 426 490 41,000  Level Jacksonville Center
09:49PM 31.2200 -81.0633 21° North 426 490 41,000  Level Jacksonville Center
09:50PM 31.3444 -81.0025 23° Northeast 426 490 41,000  Level Jacksonville Center
09:51PM 31.4564 -80.9539 20° North 433 498 41,000  Level Jacksonville Center
09:52PM 31.5603 -80.9078 21° North 428 493 41,000  Level Jacksonville Center
09:53PM 31.6803 -80.8517 22° Northeast 428 493 41,000  Level Jacksonville Center
09:54PM 31.7944 -80.8028 20° North 428 493 41,000  Level Jacksonville Center
09:55PM 31.8958 -80.7564 21° North 428 493 41,000  Level Jacksonville Center
09:56PM 32.0203 -80.6994 21° North 428 493 41,000  Level Jacksonville Center
09:57PM 32.1217 -80.6531 21° North 428 493 41,000  Level Jacksonville Center
09:58PM 32.2314 -80.6036 21° North 423 487 41,000  Level Jacksonville Center
09:59PM 32.3433 -80.5517 21° North 428 493 41,000  Level Jacksonville Center
10:00PM 32.4550 -80.4994 22° Northeast 428 493 41,000  Level Jacksonville Center
10:01PM 32.5647 -80.4472 22° Northeast 428 493 41,000  Level Jacksonville Center
10:02PM 32.6764 -80.3975 21° North 423 487 41,000  Level Jacksonville Center
10:03PM 32.7900 -80.3450 21° North 428 493 41,000  Level Jacksonville Center
10:04PM 32.8975 -80.2925 22° Northeast 423 487 41,000  Level Jacksonville Center
10:05PM 33.0258 -80.2317 22° Northeast 448 516 41,000  Level Jacksonville Center
10:06PM 33.1269 -80.1867 20° North 435 501 41,000  Level Jacksonville Center
10:07PM 33.2531 -80.1281 21° North 435 501 41,000  Level Jacksonville Center
10:08PM 33.3583 -80.0750 23° Northeast 421 484 41,000  Level Jacksonville Center
10:09PM 33.4678 -80.0242 21° North 416 479 41,000  Level Jacksonville Center
10:10PM 33.5772 -79.9733 21° North 416 479 41,000  Level Jacksonville Center
10:11PM 33.6803 -79.9125 26° Northeast 416 479 41,000  Level Jacksonville Center
10:12PM 33.7828 -79.8392 31° Northeast 411 473 41,000  Level Jacksonville Center
10:13PM 33.8875 -79.7653 30° Northeast 421 484 41,000  Level Jacksonville Center
10:14PM 33.9897 -79.6917 31° Northeast 426 490 41,000  Level Jacksonville Center
10:16PM 34.2028 -79.5392 31° Northeast 439 505 41,000  Level Washington Center
10:17PM 34.3053 -79.4611 32° Northeast 439 505 41,000  Level Washington Center
10:18PM 34.4122 -79.3856 30° Northeast 439 505 41,000  Level Washington Center
10:19PM 34.5144 -79.3122 31° Northeast 439 505 41,000  Level Washington Center
10:20PM 34.6214 -79.2336 31° Northeast 434 499 41,000  Level Washington Center
10:21PM 34.7217 -79.1600 31° Northeast 434 499 41,000  Level Washington Center
10:22PM 34.8219 -79.0858 31° Northeast 434 499 41,000  Level Washington Center
10:23PM 34.9242 -79.0117 31° Northeast 429 494 41,000  Level Washington Center
10:24PM 35.0244 -78.9375 31° Northeast 429 494 41,000  Level Washington Center
10:25PM 35.1264 -78.8628 31° Northeast 429 494 41,000  Level Washington Center
10:26PM 35.2244 -78.7906 31° Northeast 424 488 41,000  Level Washington Center
10:27PM 35.3244 -78.7156 31° Northeast 424 488 41,000  Level Washington Center
10:28PM 35.4289 -78.6356 32° Northeast 435 501 41,000  Level Washington Center
10:29PM 35.5222 -78.5678 31° Northeast 430 495 41,000  Level Washington Center
10:30PM 35.6308 -78.4822 33° Northeast 430 495 41,000  Level Washington Center
10:31PM 35.7264 -78.4142 30° Northeast 430 495 41,000  Level Washington Center
10:32PM 35.8242 -78.3408 31° Northeast 430 495 41,000  Level Washington Center
10:33PM 35.9239 -78.2647 32° Northeast 425 489 41,000  Level Washington Center
10:34PM 36.0256 -78.1886 31° Northeast 425 489 41,000  Level Washington Center
10:35PM 36.1275 -78.1122 31° Northeast 425 489 41,000  Level Washington Center
10:36PM 36.2292 -78.0331 32° Northeast 425 489 41,000  Level Washington Center
10:37PM 36.3289 -77.9561 32° Northeast 420 483 41,000  Level Washington Center
10:38PM 36.4264 -77.8817 32° Northeast 420 483 41,000  Level Washington Center
10:39PM 36.5258 -77.8044 32° Northeast 420 483 41,000  Level Washington Center
10:40PM 36.6233 -77.7244 33° Northeast 420 483 41,000  Level Washington Center
10:41PM 36.7269 -77.6469 31° Northeast 420 483 41,000  Level Washington Center
10:42PM 36.8261 -77.5664 33° Northeast 425 489 41,000  Level Washington Center
10:43PM 36.9275 -77.4886 32° Northeast 419 482 41,000  Level Washington Center
10:44PM 37.0289 -77.4103 32° Northeast 419 482 41,000  Level Washington Center
10:45PM 37.1303 -77.3294 32° Northeast 419 482 41,000  Level Washington Center
10:46PM 37.2317 -77.2508 32° Northeast 419 482 41,000  Level Washington Center
10:47PM 37.3347 -77.1694 32° Northeast 419 482 41,000  Level Washington Center
10:48PM 37.4444 -77.0750 34° Northeast 433 498 41,000  Level Washington Center
10:49PM 37.5539 -76.9986 29° Northeast 433 498 41,000  Level Washington Center
10:50PM 37.6528 -76.9164 33° Northeast 438 504 41,000  Level Washington Center
10:51PM 37.7517 -76.8342 33° Northeast 432 497 41,000  Level Washington Center
10:52PM 37.8528 -76.7542 32° Northeast 427 491 41,000  Level Washington Center
10:53PM 37.9556 -76.6714 32° Northeast 427 491 41,000  Level Washington Center
10:54PM 38.0503 -76.5936 33° Northeast 436 502 41,000  Level Washington Center
10:55PM 38.1508 -76.5106 33° Northeast 436 502 41,000  Level Washington Center
10:56PM 38.2536 -76.4300 32° Northeast 436 502 41,000  Level Washington Center
10:57PM 38.3647 -76.3278 36° Northeast 436 502 41,000  Level Washington Center
10:58PM 38.4656 -76.2361 35° Northeast 442 509 41,000  Level Washington Center
10:59PM 38.5533 -76.1467 39° Northeast 450 518 41,000  Level Washington Center
11:00PM 38.6664 -76.0464 35° Northeast 450 518 41,000  Level Washington Center
11:01PM 38.7628 -75.9458 39° Northeast 450 518 41,000  Level Washington Center
11:02PM 38.8608 -75.8503 37° Northeast 443 510 41,000  Level Washington Center
11:03PM 38.9569 -75.7517 39° Northeast 443 510 41,000  Level Washington Center
11:04PM 39.0531 -75.6583 37° Northeast 443 510 41,000  Level Washington Center
11:05PM 39.1467 -75.5647 38° Northeast 443 510 41,000  Level Washington Center
11:06PM 39.2406 -75.4683 38° Northeast 438 504 41,000  Level Washington Center
11:07PM 39.3342 -75.3769 37° Northeast 438 504 41,000  Level Washington Center
11:08PM 39.4236 -75.2825 39° Northeast 427 491 41,000  Level Washington Center
11:09PM 39.5192 -75.1881 37° Northeast 422 486 41,000  Level Washington Center
11:10PM 39.6083 -75.0958 39° Northeast 417 480 41,000  Level Washington Center
11:11PM 39.7389 -74.9606 39° Northeast 415 478 41,000  Level New York Center
11:12PM 39.8275 -74.8714 38° Northeast 412 474 41,000  Level New York Center
11:13PM 39.9247 -74.7769 37° Northeast 412 474 41,000  Level New York Center
11:14PM 40.0133 -74.6817 39° Northeast 412 474 41,000  Level New York Center
11:15PM 40.1147 -74.6414 17° North 392 451 41,000  Level New York Center
11:16PM 40.2261 -74.6122 11° North 384 442 41,000  Level New York Center
11:17PM 40.3272 -74.5769 15° North 384 442 41,000  Level New York Center
11:18PM 40.4367 -74.5422 14° North 384 442 41,000  Level New York Center
11:20PM 40.6144 -74.4850 14° North 406 467 41,000  Level Boston Center
11:21PM 40.7236 -74.4503 14° North 406 467 41,000 -240 Level Boston Center
11:22PM 40.8325 -74.4178 13° North 401 461 40,600 -900 Descending Boston Center
11:23PM 40.9519 -74.3803 13° North 396 456 39,300 -1,980 Descending Boston Center
11:24PM 41.0483 -74.3556 11° North 396 456 36,700 -2,400 Descending Boston Center
11:25PM 41.1508 -74.3228 14° North 391 450 34,500 -2,880 Descending Boston Center
11:26PM 41.2619 -74.2819 15° North 375 432 31,000 -3,060 Descending Boston Center
11:27PM 41.3583 -74.2544 12° North 363 418 28,400 -2,280 Descending Boston Center
11:28PM 41.4528 -74.2211 15° North 358 412 26,100 -1,140 Descending Boston Center
11:29PM 41.5614 -74.1908 12° North 353 406 26,000 -60 Descending Boston Center
11:30PM 41.6578 -74.1600 13° North 358 412 26,000 -900 Level Boston Center
11:31PM 41.7500 -74.1292 14° North 351 404 24,200 -2,160 Descending Boston Center
11:32PM 41.8358 -74.1036 13° North 335 386 21,700 -2,700 Descending Boston Center
11:33PM 41.9300 -74.0725 14° North 314 361 18,900 -2,580 Descending Boston Center
11:34PM 42.0075 -74.0467 14° North 309 356 16,600 -2,580 Descending Boston Center
11:35PM 42.1039 -74.0156 13° North 314 361 13,800 -2,160 Descending Boston Center
11:36PM 42.1814 -73.9867 15° North 319 367 12,300 -1,800 Descending Boston Center
11:37PM 42.2128 -73.9733 17° North 310 357 11,500 -2,220 Descending Boston Center
11:37PM 42.2653 -73.9439 23° Northeast 300 345 10,100 -2,100 Descending Boston Center
11:38PM 42.2864 -73.9331 21° North 282 325 9,400 -1,800 Descending Boston Center
11:38PM 42.3306 -73.9117 20° North 284 327 8,300 -1,980 Descending Boston Center
11:39PM 42.3578 -73.9011 16° North 263 303 7,400 -2,340 Descending Boston Center
11:39PM 42.4058 -73.8742 22° Northeast 269 310 6,000 -2,100 Descending Boston Center
11:40PM 42.4247 -73.8661 17° North 258 297 5,300 -1,860 Descending Boston Center
11:40PM 42.4647 -73.8444 22° Northeast 259 298 4,200 -1,380 Descending Boston Center
11:41PM 42.4919 -73.8311 20° North 253 291 3,900 -840 Descending Boston Center
11:41PM 42.5297 -73.8122 20° North 230 265 3,400 -840 Descending Boston Center
11:42PM 42.5464 -73.8042 20° North 196 226 3,100 -720 Descending Boston Center
11:42PM 42.5756 -73.7992 North 197 227 2,700 -600 Descending Boston Center
11:43PM 42.5986 -73.8025 354° North 159 183 2,500 -240 Descending Boston Center
11:43PM 42.6194 -73.8000 North 175 201 2,500 -420 Level Boston Center
11:44PM 42.6422 -73.8033 354° North 147 169 2,100 -120 Descending Boston Center
11:44PM 42.6736 -73.7983 North 170 196 2,400 -600 Climbing Boston Center
11:45PM 42.6797 -73.8042 325° Northwest 134 154 1,500 -1,200 Descending Boston Center
11:46PM 42.7131 -73.8078 355° North 123 142 700 -840 Descending Boston Center
11:49PM 42.7333 -73.8000 10° North  Level FlightAware Approximate
11:56PM 42.7491 -73.8020 10° North  Level Estimated